createdAt,value
2019-03-13T00:01:15.029Z,4.96
2019-03-13T00:04:19.007Z,5.05
2019-03-13T00:07:22.931Z,4.89
2019-03-13T00:10:26.814Z,4.87
2019-03-13T00:13:30.662Z,4.79
2019-03-13T00:16:34.579Z,4.85
2019-03-13T00:19:38.425Z,4.91
2019-03-13T00:22:42.207Z,4.84
2019-03-13T00:25:46.205Z,4.90
2019-03-13T00:28:50.002Z,4.96
2019-03-13T00:31:53.840Z,4.98
2019-03-13T00:34:57.721Z,4.98
2019-03-13T00:38:01.592Z,4.98
2019-03-13T00:41:05.482Z,4.98
2019-03-13T00:44:09.307Z,5.01
2019-03-13T00:47:13.181Z,4.99
2019-03-13T00:50:28.509Z,4.98
2019-03-13T00:53:32.372Z,5.02
2019-03-13T00:56:36.262Z,5.08
2019-03-13T00:59:40.137Z,4.94
2019-03-13T01:02:45.464Z,5.12
2019-03-13T01:05:55.799Z,5.09
2019-03-13T01:08:59.606Z,5.10
2019-03-13T01:12:04.265Z,5.05
2019-03-13T01:15:08.303Z,5.00
2019-03-13T01:18:12.143Z,5.30
2019-03-13T01:21:16.072Z,5.19
2019-03-13T01:24:19.889Z,5.27
2019-03-13T01:27:23.713Z,5.32
2019-03-13T01:30:29.167Z,5.27
2019-03-13T01:33:32.951Z,5.41
2019-03-13T01:36:36.739Z,5.65
2019-03-13T01:39:40.533Z,5.64
2019-03-13T01:42:44.491Z,5.73
2019-03-13T01:45:48.290Z,5.81
2019-03-13T01:48:52.108Z,5.76
2019-03-13T01:51:55.983Z,5.73
2019-03-13T01:54:59.886Z,5.83
2019-03-13T01:58:03.777Z,5.79
2019-03-13T02:01:07.931Z,5.76
2019-03-13T02:04:11.868Z,5.71
2019-03-13T02:07:15.776Z,5.71
2019-03-13T02:10:19.565Z,5.67
2019-03-13T02:13:23.366Z,5.55
2019-03-13T02:16:27.201Z,5.50
2019-03-13T02:19:31.015Z,5.70
2019-03-13T02:22:34.864Z,5.51
2019-03-13T02:25:38.691Z,5.42
2019-03-13T02:28:42.528Z,5.29
2019-03-13T02:31:46.348Z,5.32
2019-03-13T02:34:50.225Z,5.52
2019-03-13T02:37:54.033Z,5.65
2019-03-13T02:40:57.840Z,5.50
2019-03-13T02:44:01.676Z,5.41
2019-03-13T02:47:05.513Z,5.39
2019-03-13T02:50:10.898Z,5.21
2019-03-13T02:53:14.706Z,5.48
2019-03-13T02:56:18.570Z,5.37
2019-03-13T02:59:22.364Z,5.46
2019-03-13T03:02:33.993Z,5.27
2019-03-13T03:05:37.823Z,5.28
2019-03-13T03:08:41.618Z,5.25
2019-03-13T03:11:45.466Z,5.53
2019-03-13T03:15:04.487Z,5.61
2019-03-13T03:18:08.346Z,5.64
2019-03-13T03:21:12.126Z,5.43
2019-03-13T03:24:15.958Z,5.19
2019-03-13T03:27:19.764Z,5.43
2019-03-13T03:30:23.910Z,5.34
2019-03-13T03:33:27.676Z,5.28
2019-03-13T03:36:31.836Z,5.20
2019-03-13T03:39:35.634Z,5.25
2019-03-13T03:42:39.589Z,5.01
2019-03-13T03:45:43.473Z,5.09
2019-03-13T03:48:47.318Z,5.19
2019-03-13T03:51:51.302Z,5.22
2019-03-13T03:54:55.112Z,5.20
2019-03-13T03:57:59.063Z,5.19
2019-03-13T04:01:03.011Z,5.01
2019-03-13T04:04:06.806Z,5.05
2019-03-13T04:07:10.623Z,5.02
2019-03-13T04:10:14.622Z,5.16
2019-03-13T04:13:18.408Z,5.10
2019-03-13T04:16:22.298Z,5.07
2019-03-13T04:19:26.097Z,5.25
2019-03-13T04:22:29.920Z,5.20
2019-03-13T04:25:37.855Z,5.48
2019-03-13T04:28:41.769Z,5.43
2019-03-13T04:31:45.565Z,5.47
2019-03-13T04:34:49.380Z,5.41
2019-03-13T04:37:53.232Z,5.32
2019-03-13T04:40:57.033Z,5.59
2019-03-13T04:44:00.878Z,5.54
2019-03-13T04:47:04.765Z,5.55
2019-03-13T04:50:08.654Z,5.48
2019-03-13T04:53:12.454Z,5.42
2019-03-13T04:56:16.255Z,5.47
2019-03-13T04:59:20.055Z,5.36
2019-03-13T05:02:23.881Z,5.49
2019-03-13T05:05:47.884Z,5.54
2019-03-13T05:09:18.432Z,5.50
2019-03-13T05:12:22.303Z,5.43
2019-03-13T05:15:26.121Z,5.44
2019-03-13T05:18:29.942Z,5.41
2019-03-13T05:21:33.798Z,5.38
2019-03-13T05:24:37.596Z,5.36
2019-03-13T05:27:41.502Z,5.30
2019-03-13T05:30:45.417Z,5.47
2019-03-13T05:33:49.445Z,5.30
2019-03-13T05:36:53.245Z,5.16
2019-03-13T05:39:57.089Z,5.22
2019-03-13T05:43:00.880Z,5.23
2019-03-13T05:46:04.752Z,5.25
2019-03-13T05:49:08.581Z,5.21
2019-03-13T05:52:12.395Z,5.27
2019-03-13T05:55:16.342Z,5.20
2019-03-13T05:58:20.157Z,5.24
2019-03-13T06:01:23.980Z,5.21
2019-03-13T06:04:27.790Z,5.20
2019-03-13T06:07:31.609Z,5.20
2019-03-13T06:10:35.560Z,5.27
2019-03-13T06:13:39.357Z,5.25
2019-03-13T06:16:43.157Z,5.14
2019-03-13T06:19:46.991Z,5.27
2019-03-13T06:22:50.808Z,5.28
2019-03-13T06:25:54.624Z,5.23
2019-03-13T06:28:58.446Z,5.21
2019-03-13T06:32:02.318Z,5.26
2019-03-13T06:35:06.325Z,5.38
2019-03-13T06:38:10.131Z,5.18
2019-03-13T06:41:14.042Z,5.16
2019-03-13T06:44:17.845Z,5.38
2019-03-13T06:47:24.855Z,5.26
2019-03-13T06:50:27.219Z,5.22
2019-03-13T06:53:31.068Z,5.27
2019-03-13T06:56:34.926Z,5.29
2019-03-13T06:59:56.401Z,5.30
2019-03-13T07:03:05.854Z,5.37
2019-03-13T07:06:37.688Z,5.45
2019-03-13T07:09:48.638Z,5.44
2019-03-13T07:13:04.737Z,5.47
2019-03-13T07:16:17.762Z,5.41
2019-03-13T07:19:35.594Z,5.46
2019-03-13T07:22:57.099Z,5.52
2019-03-13T07:26:18.799Z,5.50
2019-03-13T07:29:59.997Z,5.57
2019-03-13T07:33:25.688Z,5.40
2019-03-13T07:36:47.408Z,5.64
2019-03-13T07:40:10.314Z,5.59
2019-03-13T07:43:36.051Z,5.71
2019-03-13T07:47:17.140Z,5.63
2019-03-13T07:50:36.629Z,5.76
2019-03-13T07:53:50.152Z,5.75
2019-03-13T07:57:27.844Z,5.75
2019-03-13T08:00:40.769Z,5.74
2019-03-13T08:04:05.322Z,5.63
2019-03-13T08:07:17.564Z,5.71
2019-03-13T08:10:39.073Z,5.66
2019-03-13T08:14:11.009Z,5.64
2019-03-13T08:17:26.032Z,5.66
2019-03-13T08:20:48.168Z,5.69
2019-03-13T08:24:08.989Z,5.65
2019-03-13T08:27:30.899Z,5.71
2019-03-13T08:30:52.554Z,5.76
2019-03-13T08:34:27.385Z,5.63
2019-03-13T08:37:37.646Z,5.79
2019-03-13T08:40:47.678Z,5.72
2019-03-13T08:44:19.640Z,5.76
2019-03-13T08:47:37.161Z,5.75
2019-03-13T08:50:58.713Z,5.75
2019-03-13T08:54:13.060Z,5.78
2019-03-13T08:57:31.833Z,5.77
2019-03-13T09:00:45.048Z,5.81
2019-03-13T09:04:16.966Z,5.80
2019-03-13T09:07:29.973Z,5.88
2019-03-13T09:11:01.694Z,5.76
2019-03-13T09:14:16.264Z,5.86
2019-03-13T09:17:36.962Z,5.83
2019-03-13T09:20:55.551Z,5.91
2019-03-13T09:24:23.293Z,5.84
2019-03-13T09:27:37.260Z,5.87
2019-03-13T09:30:54.256Z,5.99
2019-03-13T09:34:29.017Z,5.83
2019-03-13T09:37:47.139Z,6.00
2019-03-13T09:41:14.295Z,5.89
2019-03-13T09:44:35.615Z,5.87
2019-03-13T09:47:46.788Z,5.92
2019-03-13T09:50:59.928Z,6.00
2019-03-13T09:54:22.764Z,5.93
2019-03-13T09:57:44.436Z,6.02
2019-03-13T10:00:54.889Z,6.08
2019-03-13T10:04:07.463Z,6.09
2019-03-13T10:07:36.750Z,6.09
2019-03-13T10:10:50.323Z,6.05
2019-03-13T10:14:00.775Z,6.05
2019-03-13T10:17:19.966Z,6.06
2019-03-13T10:20:50.814Z,5.95
2019-03-13T10:24:25.212Z,5.92
2019-03-13T10:27:35.880Z,6.05
2019-03-13T10:30:50.450Z,5.96
2019-03-13T10:34:10.861Z,5.95
2019-03-13T10:37:36.071Z,5.92
2019-03-13T10:41:01.374Z,6.00
2019-03-13T10:44:30.706Z,6.08
2019-03-13T10:47:44.312Z,6.04
2019-03-13T10:51:05.975Z,6.16
2019-03-13T10:54:37.001Z,6.22
2019-03-13T10:57:58.796Z,6.19
2019-03-13T11:01:20.493Z,6.04
2019-03-13T11:04:49.262Z,5.93
2019-03-13T11:08:06.694Z,5.82
2019-03-13T11:11:35.467Z,5.97
2019-03-13T11:15:00.973Z,5.81
2019-03-13T11:18:13.394Z,5.89
2019-03-13T11:21:22.100Z,5.93
2019-03-13T11:24:39.435Z,5.92
2019-03-13T11:27:51.660Z,6.18
2019-03-13T11:31:07.215Z,6.08
2019-03-13T11:34:33.040Z,6.01
2019-03-13T11:37:49.232Z,5.83
2019-03-13T11:41:05.991Z,5.64
2019-03-13T11:44:34.711Z,5.71
2019-03-13T11:47:56.431Z,5.71
2019-03-13T11:51:25.380Z,5.53
2019-03-13T11:54:41.461Z,5.33
2019-03-13T11:57:55.530Z,5.09
2019-03-13T12:01:17.682Z,5.18
2019-03-13T12:04:35.466Z,5.39
2019-03-13T12:07:48.309Z,5.48
2019-03-13T12:11:05.863Z,5.68
2019-03-13T12:14:31.708Z,5.81
2019-03-13T12:17:54.679Z,5.83
2019-03-13T12:21:11.115Z,6.08
2019-03-13T12:24:31.937Z,6.06
2019-03-13T12:27:48.337Z,6.05
2019-03-13T12:31:13.877Z,6.01
2019-03-13T12:34:28.640Z,5.99
2019-03-13T12:37:50.311Z,5.80
2019-03-13T12:41:22.492Z,5.71
2019-03-13T12:44:44.115Z,5.71
2019-03-13T12:51:35.429Z,5.75
2019-03-13T12:54:49.120Z,5.60
2019-03-13T12:58:09.334Z,5.77
2019-03-13T13:01:21.938Z,5.77
2019-03-13T13:04:35.910Z,5.94
2019-03-13T13:07:48.617Z,6.16
2019-03-13T13:11:09.291Z,6.20
2019-03-13T13:14:31.468Z,6.27
2019-03-13T13:17:57.636Z,6.19
2019-03-13T13:21:01.511Z,6.34
2019-03-13T13:24:05.693Z,6.23
2019-03-13T13:27:09.649Z,6.14
2019-03-13T13:30:14.804Z,6.01
2019-03-13T13:33:18.643Z,5.84
2019-03-13T13:36:22.524Z,5.86
2019-03-13T13:39:26.421Z,5.97
2019-03-13T13:42:30.200Z,5.79
2019-03-13T13:45:45.857Z,5.86
2019-03-13T13:48:49.721Z,5.81
2019-03-13T13:51:53.604Z,5.84
2019-03-13T13:54:57.424Z,5.95
2019-03-13T13:58:01.240Z,5.84
2019-03-13T14:01:05.186Z,6.02
2019-03-13T14:04:09.006Z,6.22
2019-03-13T14:07:12.809Z,6.35
2019-03-13T14:10:16.764Z,6.35
2019-03-13T14:13:20.582Z,6.50
2019-03-13T14:16:24.387Z,6.69
2019-03-13T14:19:28.263Z,6.83
2019-03-13T14:22:32.085Z,7.03
2019-03-13T14:25:35.949Z,6.95
2019-03-13T14:28:39.818Z,7.11
2019-03-13T14:31:43.633Z,7.19
2019-03-13T14:34:47.456Z,7.10
2019-03-13T14:37:51.400Z,7.11
2019-03-13T14:40:55.375Z,7.11
2019-03-13T14:43:59.392Z,6.98
2019-03-13T14:47:03.201Z,7.06
2019-03-13T14:50:08.481Z,6.83
2019-03-13T14:53:12.407Z,7.01
2019-03-13T14:56:16.338Z,6.91
2019-03-13T14:59:20.241Z,6.80
2019-03-13T15:02:24.013Z,6.86
2019-03-13T15:05:27.907Z,6.88
2019-03-13T15:08:31.694Z,6.80
2019-03-13T15:11:35.497Z,6.79
2019-03-13T15:14:39.270Z,6.96
2019-03-13T15:17:43.153Z,6.92
2019-03-13T15:20:47.121Z,6.85
2019-03-13T15:23:50.904Z,6.94
2019-03-13T15:26:54.737Z,6.93
2019-03-13T15:29:58.546Z,6.83
2019-03-13T15:33:02.446Z,6.90
2019-03-13T15:36:06.285Z,7.11
2019-03-13T15:39:10.232Z,6.96
2019-03-13T15:42:14.059Z,7.07
2019-03-13T15:45:19.062Z,7.12
2019-03-13T15:48:22.849Z,7.28
2019-03-13T15:51:26.637Z,7.31
2019-03-13T15:54:30.503Z,7.13
2019-03-13T15:57:34.384Z,7.01
2019-03-13T16:00:38.265Z,7.13
2019-03-13T16:03:42.169Z,7.17
2019-03-13T16:06:45.948Z,7.14
2019-03-13T16:09:49.852Z,6.89
2019-03-13T16:12:55.576Z,6.88
2019-03-13T16:15:59.558Z,6.90
2019-03-13T16:19:03.384Z,6.73
2019-03-13T16:22:08.167Z,6.79
2019-03-13T16:25:12.685Z,6.65
2019-03-13T16:28:16.594Z,6.46
2019-03-13T16:31:20.404Z,6.57
2019-03-13T16:34:24.200Z,6.71
2019-03-13T16:37:28.010Z,6.57
2019-03-13T16:40:32.128Z,6.75
2019-03-13T16:43:35.970Z,6.55
2019-03-13T16:46:39.811Z,6.65
2019-03-13T16:49:43.664Z,6.61
2019-03-13T16:52:47.472Z,6.53
2019-03-13T16:55:51.351Z,6.55
2019-03-13T16:59:02.822Z,6.52
2019-03-13T17:02:06.891Z,6.40
2019-03-13T17:05:11.644Z,6.62
2019-03-13T17:08:15.450Z,6.49
2019-03-13T17:11:19.287Z,6.59
2019-03-13T17:14:23.168Z,6.46
2019-03-13T17:17:27.045Z,6.51
2019-03-13T17:20:30.898Z,6.48
2019-03-13T17:23:34.783Z,6.24
2019-03-13T17:26:38.594Z,6.31
2019-03-13T17:29:42.402Z,6.25
2019-03-13T17:32:46.305Z,6.12
2019-03-13T17:35:50.210Z,6.13
2019-03-13T17:38:54.057Z,6.20
2019-03-13T17:41:57.848Z,6.33
2019-03-13T17:45:01.733Z,6.49
2019-03-13T17:48:07.177Z,6.68
2019-03-13T17:51:10.983Z,6.61
2019-03-13T17:54:14.794Z,6.47
2019-03-13T17:57:18.682Z,6.46
2019-03-13T18:00:29.678Z,6.51
2019-03-13T18:03:33.473Z,6.53
2019-03-13T18:06:37.446Z,6.63
2019-03-13T18:09:41.241Z,6.74
2019-03-13T18:12:45.150Z,6.77
2019-03-13T18:15:49.064Z,6.75
2019-03-13T18:18:52.844Z,6.73
2019-03-13T18:21:56.690Z,6.88
2019-03-13T18:25:00.534Z,6.75
2019-03-13T18:28:04.563Z,6.79
2019-03-13T18:31:08.464Z,6.78
2019-03-13T18:34:12.276Z,6.74
2019-03-13T18:37:16.161Z,6.71
2019-03-13T18:40:20.134Z,6.79
2019-03-13T18:43:23.958Z,6.92
2019-03-13T18:46:27.747Z,6.77
2019-03-13T18:49:31.574Z,6.89
2019-03-13T18:52:35.376Z,6.74
2019-03-13T18:55:39.332Z,6.86
2019-03-13T18:58:43.302Z,6.68
2019-03-13T19:01:47.176Z,6.73
2019-03-13T19:04:51.070Z,6.82
2019-03-13T19:07:54.949Z,6.79
2019-03-13T19:10:58.794Z,6.85
2019-03-13T19:14:02.598Z,6.82
2019-03-13T19:17:06.563Z,6.90
2019-03-13T19:20:12.007Z,6.87
2019-03-13T19:23:16.088Z,6.87
2019-03-13T19:26:20.020Z,7.03
2019-03-13T19:29:23.799Z,6.94
2019-03-13T19:32:27.611Z,6.92
2019-03-13T19:35:31.568Z,7.00
2019-03-13T19:38:35.374Z,7.00
2019-03-13T19:41:39.252Z,6.97
2019-03-13T19:44:43.088Z,6.97
2019-03-13T19:47:47.037Z,6.93
2019-03-13T19:50:50.946Z,6.98
2019-03-13T19:53:54.725Z,6.95
2019-03-13T19:56:58.611Z,6.81
2019-03-13T20:00:02.414Z,6.86
2019-03-13T20:03:07.150Z,6.77
2019-03-13T20:06:11.064Z,6.92
2019-03-13T20:09:15.013Z,6.97
2019-03-13T20:12:18.802Z,6.80
2019-03-13T20:15:23.351Z,6.80
2019-03-13T20:18:27.342Z,6.88
2019-03-13T20:21:31.503Z,6.84
2019-03-13T20:24:35.313Z,6.90
2019-03-13T20:27:39.387Z,6.86
2019-03-13T20:30:43.360Z,6.97
2019-03-13T20:33:47.164Z,6.97
2019-03-13T20:36:51.087Z,6.94
2019-03-13T20:39:54.879Z,6.71
2019-03-13T20:43:02.023Z,6.89
2019-03-13T20:46:04.833Z,6.84
2019-03-13T20:49:08.717Z,6.69
2019-03-13T20:52:12.539Z,6.81
2019-03-13T20:55:16.677Z,6.75
2019-03-13T20:58:20.606Z,6.72
2019-03-13T21:01:24.472Z,6.77
2019-03-13T21:04:28.256Z,6.79
2019-03-13T21:07:32.062Z,6.69
2019-03-13T21:10:35.953Z,6.54
2019-03-13T21:13:39.745Z,6.71
2019-03-13T21:16:43.600Z,6.65
2019-03-13T21:19:47.413Z,6.55
2019-03-13T21:22:51.296Z,6.70
2019-03-13T21:25:55.167Z,6.73
2019-03-13T21:28:58.967Z,6.70
2019-03-13T21:32:02.802Z,6.69
2019-03-13T21:35:06.881Z,6.65
2019-03-13T21:38:13.083Z,6.67
2019-03-13T21:41:16.297Z,6.72
2019-03-13T21:44:20.104Z,6.76
2019-03-13T21:47:23.980Z,6.70
2019-03-13T21:50:27.962Z,6.72
2019-03-13T21:53:31.803Z,6.85
2019-03-13T21:56:35.632Z,6.85
2019-03-13T21:59:39.455Z,6.77
2019-03-13T22:02:43.289Z,6.82
2019-03-13T22:05:47.193Z,6.88
2019-03-13T22:08:50.989Z,6.85
2019-03-13T22:11:54.807Z,6.87
2019-03-13T22:14:58.681Z,6.82
2019-03-13T22:18:02.503Z,6.76
2019-03-13T22:21:06.290Z,6.78
2019-03-13T22:24:10.070Z,6.81
2019-03-13T22:27:14.935Z,6.81
2019-03-13T22:30:20.451Z,6.69
2019-03-13T22:33:24.260Z,6.65
2019-03-13T22:36:28.148Z,6.72
2019-03-13T22:39:31.933Z,6.81
2019-03-13T22:42:35.716Z,6.73
2019-03-13T22:45:39.548Z,6.78
2019-03-13T22:48:43.371Z,6.93
2019-03-13T22:51:47.233Z,6.80
2019-03-13T22:54:51.035Z,6.93
2019-03-13T22:57:54.873Z,6.76
2019-03-13T23:01:06.659Z,6.80
2019-03-13T23:04:10.648Z,6.70
2019-03-13T23:07:14.543Z,6.79
2019-03-13T23:10:30.232Z,6.72
2019-03-13T23:13:35.555Z,6.70
2019-03-13T23:16:39.422Z,6.65
2019-03-13T23:19:43.443Z,6.66
2019-03-13T23:22:47.222Z,6.66
2019-03-13T23:25:51.127Z,6.57
2019-03-13T23:28:55.060Z,6.57
2019-03-13T23:31:58.884Z,6.53
2019-03-13T23:35:04.363Z,6.42
2019-03-13T23:38:08.711Z,6.50
2019-03-13T23:41:12.668Z,6.56
2019-03-13T23:44:16.547Z,6.56
2019-03-13T23:47:20.357Z,6.61
2019-03-13T23:50:24.157Z,6.47
2019-03-13T23:53:27.956Z,6.47
2019-03-13T23:56:31.743Z,6.49
2019-03-13T23:59:35.577Z,6.53
